sensor_id;sensor_type;location;lat;lon;timestamp;P1;P2;P0
50589;PMS7003;36547;50.514;30.840;2023-04-24T00:00:46;51.90;41.10;26.20
50589;PMS7003;36547;50.514;30.840;2023-04-24T00:01:48;47.50;37.10;25.20
50589;PMS7003;36547;50.514;30.840;2023-04-24T00:02:51;51.30;40.80;27.00
50589;PMS7003;36547;50.514;30.840;2023-04-24T00:03:53;44.70;36.10;24.60
50589;PMS7003;36547;50.514;30.840;2023-04-24T00:04:56;39.50;34.80;22.80
50589;PMS7003;36547;50.514;30.840;2023-04-24T00:05:58;48.00;39.30;26.60
50589;PMS7003;36547;50.514;30.840;2023-04-24T00:07:01;49.60;40.30;25.40
50589;PMS7003;36547;50.514;30.840;2023-04-24T00:08:04;49.10;39.10;25.10
50589;PMS7003;36547;50.514;30.840;2023-04-24T00:09:06;47.30;39.80;25.60
50589;PMS7003;36547;50.514;30.840;2023-04-24T00:10:09;48.20;39.70;25.70
50589;PMS7003;36547;50.514;30.840;2023-04-24T00:11:11;45.00;38.90;25.20
50589;PMS7003;36547;50.514;30.840;2023-04-24T00:12:13;47.00;37.80;24.80
50589;PMS7003;36547;50.514;30.840;2023-04-24T00:13:16;53.30;43.40;27.80
50589;PMS7003;36547;50.514;30.840;2023-04-24T00:14:18;45.20;38.20;25.30
50589;PMS7003;36547;50.514;30.840;2023-04-24T00:15:20;52.00;39.80;26.70
50589;PMS7003;36547;50.514;30.840;2023-04-24T00:16:23;50.90;41.80;27.70
50589;PMS7003;36547;50.514;30.840;2023-04-24T00:17:26;48.60;39.30;26.70
50589;PMS7003;36547;50.514;30.840;2023-04-24T00:18:28;50.60;41.50;26.50
50589;PMS7003;36547;50.514;30.840;2023-04-24T00:19:30;50.50;40.40;26.20
50589;PMS7003;36547;50.514;30.840;2023-04-24T00:20:33;49.70;41.00;27.90
50589;PMS7003;36547;50.514;30.840;2023-04-24T00:21:36;49.60;41.70;28.00
50589;PMS7003;36547;50.514;30.840;2023-04-24T00:22:38;48.40;37.60;25.50
50589;PMS7003;36547;50.514;30.840;2023-04-24T00:23:41;49.64;38.91;25.73
50589;PMS7003;36547;50.514;30.840;2023-04-24T00:24:43;51.22;42.44;27.78
50589;PMS7003;36547;50.514;30.840;2023-04-24T00:25:45;52.67;41.11;27.78
50589;PMS7003;36547;50.514;30.840;2023-04-24T00:26:48;49.40;40.30;27.30
50589;PMS7003;36547;50.514;30.840;2023-04-24T00:27:52;50.30;40.70;27.50
50589;PMS7003;36547;50.514;30.840;2023-04-24T00:28:55;52.18;41.64;27.73
50589;PMS7003;36547;50.514;30.840;2023-04-24T00:29:58;50.40;41.20;26.60
50589;PMS7003;36547;50.514;30.840;2023-04-24T00:31:00;48.10;40.90;26.80
50589;PMS7003;36547;50.514;30.840;2023-04-24T00:32:03;49.36;41.27;28.45
50589;PMS7003;36547;50.514;30.840;2023-04-24T00:33:07;51.60;42.70;28.10
50589;PMS7003;36547;50.514;30.840;2023-04-24T00:34:10;51.20;42.40;28.30
50589;PMS7003;36547;50.514;30.840;2023-04-24T00:35:12;52.60;42.60;27.90
50589;PMS7003;36547;50.514;30.840;2023-04-24T00:36:15;48.40;40.50;27.50
50589;PMS7003;36547;50.514;30.840;2023-04-24T00:37:17;53.90;42.60;28.10
50589;PMS7003;36547;50.514;30.840;2023-04-24T00:38:20;51.60;42.60;28.80
50589;PMS7003;36547;50.514;30.840;2023-04-24T00:39:23;51.40;42.10;27.70
50589;PMS7003;36547;50.514;30.840;2023-04-24T00:40:26;51.30;41.50;28.20
50589;PMS7003;36547;50.514;30.840;2023-04-24T00:41:28;52.90;42.80;28.00
50589;PMS7003;36547;50.514;30.840;2023-04-24T00:42:31;53.17;42.17;28.25
50589;PMS7003;36547;50.514;30.840;2023-04-24T00:43:35;52.20;42.00;28.20
50589;PMS7003;36547;50.514;30.840;2023-04-24T00:44:37;55.30;42.70;29.00
50589;PMS7003;36547;50.514;30.840;2023-04-24T00:45:40;53.20;42.70;28.20
50589;PMS7003;36547;50.514;30.840;2023-04-24T00:46:43;49.50;41.50;27.20
50589;PMS7003;36547;50.514;30.840;2023-04-24T00:47:46;53.30;43.50;28.90
50589;PMS7003;36547;50.514;30.840;2023-04-24T00:48:50;51.00;40.60;28.80
50589;PMS7003;36547;50.514;30.840;2023-04-24T00:49:52;48.70;40.40;27.80
50589;PMS7003;36547;50.514;30.840;2023-04-24T00:50:55;52.20;43.40;28.50
50589;PMS7003;36547;50.514;30.840;2023-04-24T00:51:57;54.60;44.20;29.10
50589;PMS7003;36547;50.514;30.840;2023-04-24T00:52:59;53.20;44.60;28.90
50589;PMS7003;36547;50.514;30.840;2023-04-24T00:54:02;54.30;43.50;29.10
50589;PMS7003;36547;50.514;30.840;2023-04-24T00:55:05;52.30;43.20;28.20
50589;PMS7003;36547;50.514;30.840;2023-04-24T00:56:08;51.50;43.20;29.10
50589;PMS7003;36547;50.514;30.840;2023-04-24T00:57:11;53.00;42.91;27.73
50589;PMS7003;36547;50.514;30.840;2023-04-24T00:58:15;51.50;42.00;27.60
50589;PMS7003;36547;50.514;30.840;2023-04-24T00:59:17;52.00;42.00;28.80
50589;PMS7003;36547;50.514;30.840;2023-04-24T01:00:20;53.90;42.60;27.70
50589;PMS7003;36547;50.514;30.840;2023-04-24T01:01:23;54.18;43.36;28.00
50589;PMS7003;36547;50.514;30.840;2023-04-24T01:02:26;52.70;43.20;28.50
50589;PMS7003;36547;50.514;30.840;2023-04-24T01:03:29;54.10;42.50;28.00
50589;PMS7003;36547;50.514;30.840;2023-04-24T01:04:33;53.30;44.00;29.20
50589;PMS7003;36547;50.514;30.840;2023-04-24T01:05:36;51.70;42.40;29.00
50589;PMS7003;36547;50.514;30.840;2023-04-24T01:06:39;51.09;42.45;27.91
50589;PMS7003;36547;50.514;30.840;2023-04-24T01:07:45;50.90;42.60;28.30
50589;PMS7003;36547;50.514;30.840;2023-04-24T01:08:48;51.30;42.30;28.60
50589;PMS7003;36547;50.514;30.840;2023-04-24T01:09:51;51.70;42.50;27.30
50589;PMS7003;36547;50.514;30.840;2023-04-24T01:10:54;52.00;42.36;28.82
50589;PMS7003;36547;50.514;30.840;2023-04-24T01:11:58;50.60;41.00;27.80
50589;PMS7003;36547;50.514;30.840;2023-04-24T01:13:01;53.70;43.10;27.60
50589;PMS7003;36547;50.514;30.840;2023-04-24T01:14:03;51.22;42.33;28.33
50589;PMS7003;36547;50.514;30.840;2023-04-24T01:15:06;51.60;42.10;28.30
50589;PMS7003;36547;50.514;30.840;2023-04-24T01:16:11;53.70;41.70;28.50
50589;PMS7003;36547;50.514;30.840;2023-04-24T01:17:14;53.50;44.10;29.30
50589;PMS7003;36547;50.514;30.840;2023-04-24T01:18:16;52.00;42.30;29.00
50589;PMS7003;36547;50.514;30.840;2023-04-24T01:19:19;52.40;42.90;28.70
50589;PMS7003;36547;50.514;30.840;2023-04-24T01:20:21;54.40;44.50;28.80
50589;PMS7003;36547;50.514;30.840;2023-04-24T01:21:26;51.70;41.90;29.00
50589;PMS7003;36547;50.514;30.840;2023-04-24T01:22:33;51.80;43.00;28.90
50589;PMS7003;36547;50.514;30.840;2023-04-24T01:23:36;51.20;42.10;28.60
50589;PMS7003;36547;50.514;30.840;2023-04-24T01:24:38;48.80;41.90;28.80
50589;PMS7003;36547;50.514;30.840;2023-04-24T01:25:40;50.90;42.90;28.70
50589;PMS7003;36547;50.514;30.840;2023-04-24T01:26:44;52.80;42.40;28.00
50589;PMS7003;36547;50.514;30.840;2023-04-24T01:27:47;50.20;42.50;28.40
50589;PMS7003;36547;50.514;30.840;2023-04-24T01:28:49;54.40;43.40;29.30
50589;PMS7003;36547;50.514;30.840;2023-04-24T01:29:52;53.30;43.30;29.60
50589;PMS7003;36547;50.514;30.840;2023-04-24T01:30:56;51.30;42.00;27.80
50589;PMS7003;36547;50.514;30.840;2023-04-24T01:31:59;50.70;42.70;27.80
50589;PMS7003;36547;50.514;30.840;2023-04-24T01:33:01;49.60;41.50;27.90
50589;PMS7003;36547;50.514;30.840;2023-04-24T01:34:05;54.10;42.30;28.10
50589;PMS7003;36547;50.514;30.840;2023-04-24T01:35:08;50.50;42.60;28.80
50589;PMS7003;36547;50.514;30.840;2023-04-24T01:36:11;50.50;42.70;29.30
50589;PMS7003;36547;50.514;30.840;2023-04-24T01:37:13;48.00;40.10;27.80
50589;PMS7003;36547;50.514;30.840;2023-04-24T01:38:15;50.30;40.40;28.50
50589;PMS7003;36547;50.514;30.840;2023-04-24T01:39:18;50.50;41.90;29.10
50589;PMS7003;36547;50.514;30.840;2023-04-24T01:40:22;53.70;43.80;28.00
50589;PMS7003;36547;50.514;30.840;2023-04-24T01:41:24;51.70;42.60;28.50
50589;PMS7003;36547;50.514;30.840;2023-04-24T01:42:27;51.10;41.60;27.80
50589;PMS7003;36547;50.514;30.840;2023-04-24T01:43:29;52.10;42.00;29.00
50589;PMS7003;36547;50.514;30.840;2023-04-24T01:44:33;47.50;39.30;26.10
50589;PMS7003;36547;50.514;30.840;2023-04-24T01:45:36;44.80;37.10;27.00
50589;PMS7003;36547;50.514;30.840;2023-04-24T01:46:39;50.10;40.20;28.40
50589;PMS7003;36547;50.514;30.840;2023-04-24T01:47:42;50.60;40.60;27.30
50589;PMS7003;36547;50.514;30.840;2023-04-24T01:48:45;51.00;42.00;27.80
50589;PMS7003;36547;50.514;30.840;2023-04-24T01:49:49;48.40;40.60;28.10
50589;PMS7003;36547;50.514;30.840;2023-04-24T01:50:52;50.00;42.80;29.30
50589;PMS7003;36547;50.514;30.840;2023-04-24T01:51:55;13.30;12.80;2.00
50589;PMS7003;36547;50.514;30.840;2023-04-24T01:52:57;48.80;42.10;26.90
50589;PMS7003;36547;50.514;30.840;2023-04-24T01:54:00;48.70;40.20;27.00
50589;PMS7003;36547;50.514;30.840;2023-04-24T01:55:04;50.50;40.60;26.70
50589;PMS7003;36547;50.514;30.840;2023-04-24T01:56:07;49.90;41.80;28.30
50589;PMS7003;36547;50.514;30.840;2023-04-24T01:57:10;51.40;42.70;27.70
50589;PMS7003;36547;50.514;30.840;2023-04-24T01:58:13;49.10;39.20;27.30
50589;PMS7003;36547;50.514;30.840;2023-04-24T01:59:15;51.40;41.40;28.20
50589;PMS7003;36547;50.514;30.840;2023-04-24T02:00:19;49.20;39.00;26.00
50589;PMS7003;36547;50.514;30.840;2023-04-24T02:01:22;51.70;41.20;27.80
50589;PMS7003;36547;50.514;30.840;2023-04-24T02:02:26;50.70;41.50;27.30
50589;PMS7003;36547;50.514;30.840;2023-04-24T02:03:28;51.90;40.90;28.20
50589;PMS7003;36547;50.514;30.840;2023-04-24T02:04:32;48.40;40.80;27.70
50589;PMS7003;36547;50.514;30.840;2023-04-24T02:05:34;48.40;41.20;27.60
50589;PMS7003;36547;50.514;30.840;2023-04-24T02:06:38;47.80;39.60;27.40
50589;PMS7003;36547;50.514;30.840;2023-04-24T02:07:40;46.60;38.60;26.50
50589;PMS7003;36547;50.514;30.840;2023-04-24T02:08:44;47.10;40.40;26.50
50589;PMS7003;36547;50.514;30.840;2023-04-24T02:09:46;48.90;42.00;28.20
50589;PMS7003;36547;50.514;30.840;2023-04-24T02:10:49;48.60;39.90;25.40
50589;PMS7003;36547;50.514;30.840;2023-04-24T02:11:51;52.40;42.00;26.90
50589;PMS7003;36547;50.514;30.840;2023-04-24T02:12:54;47.30;40.10;25.50
50589;PMS7003;36547;50.514;30.840;2023-04-24T02:13:58;54.80;41.40;27.30
50589;PMS7003;36547;50.514;30.840;2023-04-24T02:15:00;52.40;40.60;26.70
50589;PMS7003;36547;50.514;30.840;2023-04-24T02:16:03;45.90;39.00;27.30
50589;PMS7003;36547;50.514;30.840;2023-04-24T02:17:06;48.20;39.40;26.90
50589;PMS7003;36547;50.514;30.840;2023-04-24T02:18:11;41.30;35.90;21.30
50589;PMS7003;36547;50.514;30.840;2023-04-24T02:19:13;51.60;41.80;28.90
50589;PMS7003;36547;50.514;30.840;2023-04-24T02:20:16;52.10;41.60;28.40
50589;PMS7003;36547;50.514;30.840;2023-04-24T02:21:18;48.56;40.89;27.78
50589;PMS7003;36547;50.514;30.840;2023-04-24T02:22:21;48.10;40.10;27.50
50589;PMS7003;36547;50.514;30.840;2023-04-24T02:23:23;44.70;37.60;23.90
50589;PMS7003;36547;50.514;30.840;2023-04-24T02:24:25;48.80;39.80;26.30
50589;PMS7003;36547;50.514;30.840;2023-04-24T02:25:27;49.70;40.70;27.30
50589;PMS7003;36547;50.514;30.840;2023-04-24T02:26:30;44.36;36.82;24.73
50589;PMS7003;36547;50.514;30.840;2023-04-24T02:27:33;51.40;41.60;26.60
50589;PMS7003;36547;50.514;30.840;2023-04-24T02:28:35;47.90;38.90;25.80
50589;PMS7003;36547;50.514;30.840;2023-04-24T02:29:37;51.11;41.22;27.00
50589;PMS7003;36547;50.514;30.840;2023-04-24T02:30:40;49.50;40.90;26.20
50589;PMS7003;36547;50.514;30.840;2023-04-24T02:31:42;45.30;37.70;25.90
50589;PMS7003;36547;50.514;30.840;2023-04-24T02:32:44;39.20;34.50;24.60
50589;PMS7003;36547;50.514;30.840;2023-04-24T02:33:46;48.80;40.80;26.70
50589;PMS7003;36547;50.514;30.840;2023-04-24T02:34:49;49.60;38.90;25.90
50589;PMS7003;36547;50.514;30.840;2023-04-24T02:35:51;51.56;40.78;27.44
50589;PMS7003;36547;50.514;30.840;2023-04-24T02:36:53;48.50;41.10;26.90
50589;PMS7003;36547;50.514;30.840;2023-04-24T02:37:56;51.00;41.50;27.80
50589;PMS7003;36547;50.514;30.840;2023-04-24T02:38:59;47.30;39.60;25.60
50589;PMS7003;36547;50.514;30.840;2023-04-24T02:40:01;49.20;42.20;28.20
50589;PMS7003;36547;50.514;30.840;2023-04-24T02:41:03;50.60;41.10;26.50
50589;PMS7003;36547;50.514;30.840;2023-04-24T02:42:07;47.60;39.60;27.00
50589;PMS7003;36547;50.514;30.840;2023-04-24T02:43:10;47.90;39.30;26.50
50589;PMS7003;36547;50.514;30.840;2023-04-24T02:44:12;44.90;39.00;26.00
50589;PMS7003;36547;50.514;30.840;2023-04-24T02:45:14;48.70;41.30;26.70
50589;PMS7003;36547;50.514;30.840;2023-04-24T02:46:17;49.80;39.50;27.70
50589;PMS7003;36547;50.514;30.840;2023-04-24T02:47:19;45.50;37.30;25.40
50589;PMS7003;36547;50.514;30.840;2023-04-24T02:48:23;47.30;38.10;25.80
50589;PMS7003;36547;50.514;30.840;2023-04-24T02:49:26;48.90;40.50;27.80
50589;PMS7003;36547;50.514;30.840;2023-04-24T02:50:29;44.00;35.27;25.18
50589;PMS7003;36547;50.514;30.840;2023-04-24T02:51:31;46.00;38.40;26.20
50589;PMS7003;36547;50.514;30.840;2023-04-24T02:52:34;46.20;38.90;26.40
50589;PMS7003;36547;50.514;30.840;2023-04-24T02:53:36;45.60;38.80;27.30
50589;PMS7003;36547;50.514;30.840;2023-04-24T02:54:38;46.90;39.80;26.80
50589;PMS7003;36547;50.514;30.840;2023-04-24T02:55:40;48.44;39.22;26.78
50589;PMS7003;36547;50.514;30.840;2023-04-24T02:56:43;47.10;39.60;26.80
50589;PMS7003;36547;50.514;30.840;2023-04-24T02:57:45;47.20;39.20;24.30
50589;PMS7003;36547;50.514;30.840;2023-04-24T02:58:48;49.30;40.80;27.50
50589;PMS7003;36547;50.514;30.840;2023-04-24T02:59:50;46.90;38.60;25.90
50589;PMS7003;36547;50.514;30.840;2023-04-24T03:00:53;48.70;39.30;27.30
50589;PMS7003;36547;50.514;30.840;2023-04-24T03:01:56;44.90;38.10;26.20
50589;PMS7003;36547;50.514;30.840;2023-04-24T03:03:00;47.80;41.00;26.90
50589;PMS7003;36547;50.514;30.840;2023-04-24T03:04:03;49.80;39.40;26.40
50589;PMS7003;36547;50.514;30.840;2023-04-24T03:05:06;47.45;39.09;27.00
50589;PMS7003;36547;50.514;30.840;2023-04-24T03:06:09;48.36;38.91;26.09
50589;PMS7003;36547;50.514;30.840;2023-04-24T03:07:12;44.80;39.40;26.20
50589;PMS7003;36547;50.514;30.840;2023-04-24T03:08:14;46.10;39.80;25.60
50589;PMS7003;36547;50.514;30.840;2023-04-24T03:09:17;48.70;39.20;26.10
50589;PMS7003;36547;50.514;30.840;2023-04-24T03:10:19;41.00;35.30;23.00
50589;PMS7003;36547;50.514;30.840;2023-04-24T03:11:23;45.00;38.40;25.50
50589;PMS7003;36547;50.514;30.840;2023-04-24T03:12:25;49.50;40.00;26.00
50589;PMS7003;36547;50.514;30.840;2023-04-24T03:13:27;50.60;39.90;26.20
50589;PMS7003;36547;50.514;30.840;2023-04-24T03:14:30;48.00;38.40;26.20
50589;PMS7003;36547;50.514;30.840;2023-04-24T03:15:32;49.50;42.20;26.40
50589;PMS7003;36547;50.514;30.840;2023-04-24T03:16:35;49.60;41.00;26.30
50589;PMS7003;36547;50.514;30.840;2023-04-24T03:17:37;48.80;39.90;27.00
50589;PMS7003;36547;50.514;30.840;2023-04-24T03:18:40;47.22;38.67;26.33
50589;PMS7003;36547;50.514;30.840;2023-04-24T03:19:43;48.60;38.60;25.90
50589;PMS7003;36547;50.514;30.840;2023-04-24T03:20:46;50.40;42.10;27.50
50589;PMS7003;36547;50.514;30.840;2023-04-24T03:21:49;50.70;40.40;26.60
50589;PMS7003;36547;50.514;30.840;2023-04-24T03:22:52;50.55;42.09;27.64
50589;PMS7003;36547;50.514;30.840;2023-04-24T03:23:54;44.50;38.00;27.10
50589;PMS7003;36547;50.514;30.840;2023-04-24T03:24:56;46.80;37.60;26.40
50589;PMS7003;36547;50.514;30.840;2023-04-24T03:25:59;49.10;40.30;25.80
50589;PMS7003;36547;50.514;30.840;2023-04-24T03:27:02;46.80;36.90;26.40
50589;PMS7003;36547;50.514;30.840;2023-04-24T03:28:23;46.91;39.09;25.91
50589;PMS7003;36547;50.514;30.840;2023-04-24T03:29:31;53.20;41.60;27.70
50589;PMS7003;36547;50.514;30.840;2023-04-24T03:30:33;45.90;38.90;26.50
50589;PMS7003;36547;50.514;30.840;2023-04-24T03:31:35;50.40;40.70;27.90
50589;PMS7003;36547;50.514;30.840;2023-04-24T03:32:38;51.20;41.50;26.80
50589;PMS7003;36547;50.514;30.840;2023-04-24T03:33:41;46.70;39.70;25.20
50589;PMS7003;36547;50.514;30.840;2023-04-24T03:34:44;49.40;40.30;28.10
50589;PMS7003;36547;50.514;30.840;2023-04-24T03:35:48;48.50;40.30;27.70
50589;PMS7003;36547;50.514;30.840;2023-04-24T03:36:52;49.60;40.10;27.70
50589;PMS7003;36547;50.514;30.840;2023-04-24T03:37:55;49.50;41.60;28.20
50589;PMS7003;36547;50.514;30.840;2023-04-24T03:39:16;48.90;40.30;28.20
50589;PMS7003;36547;50.514;30.840;2023-04-24T03:40:21;45.50;38.40;27.30
50589;PMS7003;36547;50.514;30.840;2023-04-24T03:41:23;47.60;38.70;26.20
50589;PMS7003;36547;50.514;30.840;2023-04-24T03:42:30;49.20;40.70;28.30
50589;PMS7003;36547;50.514;30.840;2023-04-24T03:43:34;52.40;44.00;28.20
50589;PMS7003;36547;50.514;30.840;2023-04-24T03:44:37;46.80;38.90;28.10
50589;PMS7003;36547;50.514;30.840;2023-04-24T03:45:40;49.82;40.27;27.91
50589;PMS7003;36547;50.514;30.840;2023-04-24T03:46:43;49.50;40.40;27.00
50589;PMS7003;36547;50.514;30.840;2023-04-24T03:47:46;46.55;39.36;26.82
50589;PMS7003;36547;50.514;30.840;2023-04-24T03:48:49;49.60;42.10;28.20
50589;PMS7003;36547;50.514;30.840;2023-04-24T03:49:53;51.90;41.10;27.30
50589;PMS7003;36547;50.514;30.840;2023-04-24T03:50:56;51.00;40.40;28.10
50589;PMS7003;36547;50.514;30.840;2023-04-24T03:51:58;39.60;35.10;26.10
50589;PMS7003;36547;50.514;30.840;2023-04-24T03:53:01;50.27;41.18;28.18
50589;PMS7003;36547;50.514;30.840;2023-04-24T03:54:05;51.50;42.80;28.30
50589;PMS7003;36547;50.514;30.840;2023-04-24T03:55:09;47.10;39.30;27.00
50589;PMS7003;36547;50.514;30.840;2023-04-24T03:56:13;48.00;39.10;26.80
50589;PMS7003;36547;50.514;30.840;2023-04-24T03:57:16;49.30;40.00;26.60
50589;PMS7003;36547;50.514;30.840;2023-04-24T03:58:20;46.30;36.80;27.50
50589;PMS7003;36547;50.514;30.840;2023-04-24T03:59:23;47.80;38.90;26.10
50589;PMS7003;36547;50.514;30.840;2023-04-24T04:00:28;46.70;38.60;25.30
50589;PMS7003;36547;50.514;30.840;2023-04-24T04:01:32;52.30;40.10;27.20
50589;PMS7003;36547;50.514;30.840;2023-04-24T04:02:38;47.60;40.20;26.70
50589;PMS7003;36547;50.514;30.840;2023-04-24T04:03:41;52.00;41.20;28.40
50589;PMS7003;36547;50.514;30.840;2023-04-24T04:04:46;47.20;39.50;27.70
50589;PMS7003;36547;50.514;30.840;2023-04-24T04:05:48;47.10;40.30;27.00
50589;PMS7003;36547;50.514;30.840;2023-04-24T04:06:51;48.60;40.40;26.40
50589;PMS7003;36547;50.514;30.840;2023-04-24T04:07:53;51.20;41.20;27.50
50589;PMS7003;36547;50.514;30.840;2023-04-24T04:08:56;47.10;38.60;27.10
50589;PMS7003;36547;50.514;30.840;2023-04-24T04:10:00;48.10;39.30;26.90
50589;PMS7003;36547;50.514;30.840;2023-04-24T04:11:03;45.90;40.00;28.10
50589;PMS7003;36547;50.514;30.840;2023-04-24T04:12:07;49.30;41.20;27.50
50589;PMS7003;36547;50.514;30.840;2023-04-24T04:13:09;47.00;39.40;26.30
50589;PMS7003;36547;50.514;30.840;2023-04-24T04:14:12;47.70;39.20;26.80
50589;PMS7003;36547;50.514;30.840;2023-04-24T04:15:15;50.00;40.90;27.00
50589;PMS7003;36547;50.514;30.840;2023-04-24T04:16:19;45.60;38.70;26.20
50589;PMS7003;36547;50.514;30.840;2023-04-24T04:17:22;48.10;38.30;26.10
50589;PMS7003;36547;50.514;30.840;2023-04-24T04:18:25;48.27;39.91;26.27
50589;PMS7003;36547;50.514;30.840;2023-04-24T04:19:28;52.10;41.80;28.00
50589;PMS7003;36547;50.514;30.840;2023-04-24T04:20:31;48.40;40.60;27.70
50589;PMS7003;36547;50.514;30.840;2023-04-24T04:21:34;50.10;38.90;27.50
50589;PMS7003;36547;50.514;30.840;2023-04-24T04:22:38;51.80;40.50;26.00
50589;PMS7003;36547;50.514;30.840;2023-04-24T04:23:43;50.20;41.30;28.00
50589;PMS7003;36547;50.514;30.840;2023-04-24T04:24:51;50.00;41.10;27.40
50589;PMS7003;36547;50.514;30.840;2023-04-24T04:25:55;52.70;41.70;27.20
50589;PMS7003;36547;50.514;30.840;2023-04-24T04:26:59;48.10;40.60;27.10
50589;PMS7003;36547;50.514;30.840;2023-04-24T04:28:06;52.70;40.80;27.80
50589;PMS7003;36547;50.514;30.840;2023-04-24T04:29:08;50.30;42.60;27.60
50589;PMS7003;36547;50.514;30.840;2023-04-24T04:30:14;49.60;40.20;27.10
50589;PMS7003;36547;50.514;30.840;2023-04-24T04:31:21;52.00;41.70;28.10
50589;PMS7003;36547;50.514;30.840;2023-04-24T04:32:25;51.20;41.70;27.50
50589;PMS7003;36547;50.514;30.840;2023-04-24T04:33:27;49.00;40.40;26.60
50589;PMS7003;36547;50.514;30.840;2023-04-24T04:34:30;51.80;40.90;26.70
50589;PMS7003;36547;50.514;30.840;2023-04-24T04:35:33;46.90;38.20;25.70
50589;PMS7003;36547;50.514;30.840;2023-04-24T04:36:36;41.50;37.30;24.10
50589;PMS7003;36547;50.514;30.840;2023-04-24T04:37:40;52.50;41.50;27.70
50589;PMS7003;36547;50.514;30.840;2023-04-24T04:38:53;48.60;39.40;26.80
50589;PMS7003;36547;50.514;30.840;2023-04-24T04:40:00;48.80;39.60;26.60
50589;PMS7003;36547;50.514;30.840;2023-04-24T04:41:05;49.40;39.00;26.60
50589;PMS7003;36547;50.514;30.840;2023-04-24T04:42:08;42.80;37.50;24.40
50589;PMS7003;36547;50.514;30.840;2023-04-24T04:43:15;48.20;37.90;25.00
50589;PMS7003;36547;50.514;30.840;2023-04-24T04:44:19;48.20;39.00;25.10
50589;PMS7003;36547;50.514;30.840;2023-04-24T04:45:21;48.00;39.80;24.90
50589;PMS7003;36547;50.514;30.840;2023-04-24T04:46:29;46.40;38.00;26.00
50589;PMS7003;36547;50.514;30.840;2023-04-24T04:47:34;48.80;38.50;25.40
50589;PMS7003;36547;50.514;30.840;2023-04-24T04:48:37;49.60;41.10;27.30
50589;PMS7003;36547;50.514;30.840;2023-04-24T04:49:40;46.50;37.60;26.00
50589;PMS7003;36547;50.514;30.840;2023-04-24T04:50:44;48.80;38.90;25.50
50589;PMS7003;36547;50.514;30.840;2023-04-24T04:51:48;13.80;13.30;3.00
50589;PMS7003;36547;50.514;30.840;2023-04-24T04:52:51;47.70;39.00;25.30
50589;PMS7003;36547;50.514;30.840;2023-04-24T04:53:55;45.20;37.30;24.70
50589;PMS7003;36547;50.514;30.840;2023-04-24T04:54:58;40.40;35.60;24.50
50589;PMS7003;36547;50.514;30.840;2023-04-24T04:56:02;39.70;35.40;23.60
50589;PMS7003;36547;50.514;30.840;2023-04-24T04:57:13;35.70;32.20;20.50
50589;PMS7003;36547;50.514;30.840;2023-04-24T04:58:16;43.30;35.60;23.90
50589;PMS7003;36547;50.514;30.840;2023-04-24T04:59:19;41.30;34.90;23.80
50589;PMS7003;36547;50.514;30.840;2023-04-24T05:00:23;40.80;34.90;23.80
50589;PMS7003;36547;50.514;30.840;2023-04-24T05:01:26;43.70;36.10;23.50
50589;PMS7003;36547;50.514;30.840;2023-04-24T05:02:29;42.50;35.50;23.70
50589;PMS7003;36547;50.514;30.840;2023-04-24T05:03:33;36.50;31.80;21.20
50589;PMS7003;36547;50.514;30.840;2023-04-24T05:04:38;36.50;31.30;19.60
50589;PMS7003;36547;50.514;30.840;2023-04-24T05:05:41;28.10;24.70;14.00
50589;PMS7003;36547;50.514;30.840;2023-04-24T05:06:45;31.20;30.30;21.90
50589;PMS7003;36547;50.514;30.840;2023-04-24T05:07:47;36.40;31.50;22.10
50589;PMS7003;36547;50.514;30.840;2023-04-24T05:08:49;34.30;31.00;21.20
50589;PMS7003;36547;50.514;30.840;2023-04-24T05:09:54;35.00;31.10;21.50
50589;PMS7003;36547;50.514;30.840;2023-04-24T05:10:57;31.70;30.60;22.50
50589;PMS7003;36547;50.514;30.840;2023-04-24T05:12:01;34.80;28.60;19.20
50589;PMS7003;36547;50.514;30.840;2023-04-24T05:13:04;32.30;29.60;21.30
50589;PMS7003;36547;50.514;30.840;2023-04-24T05:14:08;31.20;27.50;20.00
50589;PMS7003;36547;50.514;30.840;2023-04-24T05:15:12;30.30;27.80;20.70
50589;PMS7003;36547;50.514;30.840;2023-04-24T05:16:14;30.40;27.80;20.80
50589;PMS7003;36547;50.514;30.840;2023-04-24T05:17:17;32.80;29.50;21.00
50589;PMS7003;36547;50.514;30.840;2023-04-24T05:19:31;30.10;27.70;20.10
50589;PMS7003;36547;50.514;30.840;2023-04-24T05:20:34;28.70;26.90;20.30
50589;PMS7003;36547;50.514;30.840;2023-04-24T05:21:37;28.10;25.20;20.20
50589;PMS7003;36547;50.514;30.840;2023-04-24T05:22:39;28.27;27.82;18.73
50589;PMS7003;36547;50.514;30.840;2023-04-24T05:23:42;29.50;29.30;20.80
50589;PMS7003;36547;50.514;30.840;2023-04-24T05:24:45;31.91;30.64;20.55
50589;PMS7003;36547;50.514;30.840;2023-04-24T05:25:50;33.90;30.00;20.60
50589;PMS7003;36547;50.514;30.840;2023-04-24T05:26:52;28.10;27.50;19.90
50589;PMS7003;36547;50.514;30.840;2023-04-24T05:27:57;27.40;24.20;17.10
50589;PMS7003;36547;50.514;30.840;2023-04-24T05:28:59;28.60;26.40;19.80
50589;PMS7003;36547;50.514;30.840;2023-04-24T05:30:01;33.30;28.30;18.90
50589;PMS7003;36547;50.514;30.840;2023-04-24T05:31:05;26.70;23.90;17.80
50589;PMS7003;36547;50.514;30.840;2023-04-24T05:32:08;27.70;26.00;18.30
50589;PMS7003;36547;50.514;30.840;2023-04-24T05:33:10;24.90;21.80;15.70
50589;PMS7003;36547;50.514;30.840;2023-04-24T05:34:12;24.00;22.50;16.50
50589;PMS7003;36547;50.514;30.840;2023-04-24T05:35:17;24.70;21.90;16.80
50589;PMS7003;36547;50.514;30.840;2023-04-24T05:36:20;23.50;20.10;15.80
50589;PMS7003;36547;50.514;30.840;2023-04-24T05:37:23;22.10;21.30;15.60
50589;PMS7003;36547;50.514;30.840;2023-04-24T05:38:25;23.00;22.40;15.60
50589;PMS7003;36547;50.514;30.840;2023-04-24T05:39:27;19.60;18.70;14.80
50589;PMS7003;36547;50.514;30.840;2023-04-24T05:40:30;23.30;21.10;15.50
50589;PMS7003;36547;50.514;30.840;2023-04-24T05:41:32;17.80;16.00;11.70
50589;PMS7003;36547;50.514;30.840;2023-04-24T05:42:35;19.50;18.30;12.80
50589;PMS7003;36547;50.514;30.840;2023-04-24T05:43:37;16.10;16.10;11.90
50589;PMS7003;36547;50.514;30.840;2023-04-24T05:44:39;7.00;5.30;3.30
50589;PMS7003;36547;50.514;30.840;2023-04-24T05:45:42;18.60;16.70;12.00
50589;PMS7003;36547;50.514;30.840;2023-04-24T05:46:45;19.18;18.55;12.91
50589;PMS7003;36547;50.514;30.840;2023-04-24T05:47:47;15.50;13.60;11.30
50589;PMS7003;36547;50.514;30.840;2023-04-24T05:48:50;15.20;14.10;11.20
50589;PMS7003;36547;50.514;30.840;2023-04-24T05:49:52;15.10;12.80;10.70
50589;PMS7003;36547;50.514;30.840;2023-04-24T05:50:55;12.70;11.80;10.50